Sonstiges

Flugwetter

[source: ADDS]
METAR
LOWL 180620Z VRB02KT 0400 R26/P1500U BCFG BR BKN002 05/05 Q1020 TEMPO 0300 FG VV001 =
TAF LOWL 180515Z 1806/1906 VRB02KT 5000 BR SCT005 TX16/1815Z TN07/1806Z TEMPO 1806/1810 1200 BCFG BKN004 PROB40 1806/1809 0300 FG VV002 BECMG 1809/1811 27004KT 9999 NSW FEW040 BECMG 1822/1901 8000 BKN040 PROB30 1903/1906 0600 BCFG FEW003 SCT045
TAF
TAF LOWL 180515Z 1806/1906 VRB02KT 5000 BR SCT005 TX16/1815Z TN07/1806Z TEMPO 1806/1810 1200 BCFG BKN004 PROB40 1806/1809 0300 FG VV002 BECMG 1809/1811 27004KT 9999 NSW FEW040 BECMG 1822/1901 8000 BKN040 PROB30 1903/1906 0600 BCFG FEW003 SCT045 =